createdAt,value
2019-05-21T00:01:56.636Z,15.40
2019-05-21T00:04:28.602Z,16.93
2019-05-21T00:06:58.757Z,15.53
2019-05-21T00:09:29.104Z,17.23
2019-05-21T00:11:59.153Z,16.40
2019-05-21T00:14:29.177Z,16.23
2019-05-21T00:16:59.781Z,18.17
2019-05-21T00:19:30.487Z,17.00
2019-05-21T00:22:00.435Z,18.75
2019-05-21T00:24:31.043Z,16.97
2019-05-21T00:27:01.814Z,17.75
2019-05-21T00:30:09.160Z,17.07
2019-05-21T00:33:15.498Z,16.48
2019-05-21T00:36:22.688Z,19.35
2019-05-21T00:39:29.018Z,19.55
2019-05-21T00:42:05.578Z,20.65
2019-05-21T00:44:42.955Z,18.57
2019-05-21T00:47:14.768Z,18.67
2019-05-21T00:49:45.012Z,23.05
2019-05-21T00:52:15.200Z,20.62
2019-05-21T00:54:45.611Z,21.55
2019-05-21T00:57:16.138Z,22.60
2019-05-21T00:59:46.889Z,21.77
2019-05-21T01:02:19.796Z,22.48
2019-05-21T01:05:00.827Z,22.13
2019-05-21T01:07:35.407Z,21.73
2019-05-21T01:10:11.012Z,18.55
2019-05-21T01:12:47.770Z,20.90
2019-05-21T01:15:23.896Z,19.45
2019-05-21T01:18:01.080Z,19.45
2019-05-21T01:20:36.586Z,19.32
2019-05-21T01:23:07.751Z,19.85
2019-05-21T01:25:42.252Z,15.85
2019-05-21T01:28:21.117Z,16.70
2019-05-21T01:30:55.836Z,17.98
2019-05-21T01:33:32.426Z,14.33
2019-05-21T01:36:07.145Z,17.20
2019-05-21T01:38:44.441Z,16.42
2019-05-21T01:41:22.925Z,15.35
2019-05-21T01:44:03.301Z,17.12
2019-05-21T01:46:39.682Z,15.80
2019-05-21T01:49:16.369Z,13.58
2019-05-21T01:51:51.256Z,15.15
2019-05-21T01:54:26.606Z,15.70
2019-05-21T01:57:01.969Z,14.13
2019-05-21T01:59:40.657Z,12.30
2019-05-21T02:02:16.308Z,12.30
2019-05-21T02:04:52.024Z,11.20
2019-05-21T02:07:30.374Z,13.18
2019-05-21T02:10:09.683Z,12.75
2019-05-21T02:12:53.013Z,11.00
2019-05-21T02:15:32.079Z,10.65
2019-05-21T02:18:10.404Z,11.15
2019-05-21T02:20:46.981Z,12.18
2019-05-21T02:23:22.697Z,10.03
2019-05-21T02:25:59.703Z,12.33
2019-05-21T02:28:36.453Z,10.58
2019-05-21T02:31:12.493Z,13.43
2019-05-21T02:33:48.188Z,11.18
2019-05-21T02:36:26.462Z,11.85
2019-05-21T02:39:01.867Z,12.35
2019-05-21T02:41:42.532Z,12.50
2019-05-21T02:44:18.368Z,12.93
2019-05-21T02:46:55.673Z,13.62
2019-05-21T02:49:31.261Z,13.00
2019-05-21T02:52:08.478Z,15.00
2019-05-21T02:54:43.755Z,14.33
2019-05-21T02:57:17.866Z,12.82
2019-05-21T02:59:53.886Z,10.05
2019-05-21T03:02:39.911Z,13.88
2019-05-21T03:05:14.638Z,12.70
2019-05-21T03:07:49.363Z,14.20
2019-05-21T03:10:25.261Z,13.55
2019-05-21T03:13:00.668Z,13.90
2019-05-21T03:15:37.962Z,14.45
2019-05-21T03:18:12.797Z,15.72
2019-05-21T03:20:50.185Z,15.63
2019-05-21T03:23:28.042Z,14.95
2019-05-21T03:26:08.840Z,16.17
2019-05-21T03:28:44.764Z,15.83
2019-05-21T03:31:19.706Z,15.93
2019-05-21T03:33:56.234Z,14.18
2019-05-21T03:36:34.535Z,14.87
2019-05-21T03:39:10.618Z,13.32
2019-05-21T03:41:47.838Z,13.70
2019-05-21T03:44:24.141Z,14.25
2019-05-21T03:47:00.837Z,13.13
2019-05-21T03:49:41.413Z,14.45
2019-05-21T03:52:21.734Z,14.43
2019-05-21T03:55:02.797Z,12.45
2019-05-21T03:57:37.595Z,14.58
2019-05-21T04:00:12.860Z,13.78
2019-05-21T04:02:47.990Z,15.05
2019-05-21T04:05:33.092Z,13.75
2019-05-21T04:08:11.963Z,15.05
2019-05-21T04:10:42.641Z,15.32
2019-05-21T04:13:13.086Z,14.07
2019-05-21T04:16:02.035Z,14.03
2019-05-21T04:18:37.798Z,13.45
2019-05-21T04:21:07.863Z,14.23
2019-05-21T04:23:38.264Z,13.62
2019-05-21T04:26:08.979Z,12.43
2019-05-21T04:28:39.464Z,12.63
2019-05-21T04:31:09.960Z,11.57
2019-05-21T04:33:40.779Z,11.83
2019-05-21T04:36:10.940Z,11.93
2019-05-21T04:38:41.324Z,12.60
2019-05-21T04:41:11.362Z,12.05
2019-05-21T04:43:41.781Z,11.08
2019-05-21T04:46:12.212Z,11.83
2019-05-21T04:48:42.624Z,10.40
2019-05-21T04:51:13.859Z,10.68
2019-05-21T04:53:44.306Z,10.68
2019-05-21T04:56:14.780Z,9.68
2019-05-21T04:58:45.273Z,10.23
2019-05-21T05:01:15.380Z,9.78
2019-05-21T05:03:45.428Z,10.10
2019-05-21T05:06:15.700Z,9.28
2019-05-21T05:08:46.366Z,10.10
2019-05-21T05:11:16.472Z,8.63
2019-05-21T05:13:47.366Z,9.08
2019-05-21T05:16:17.438Z,8.38
2019-05-21T05:18:47.945Z,7.65
2019-05-21T05:21:18.298Z,8.33
2019-05-21T05:23:49.628Z,7.75
2019-05-21T05:26:19.704Z,8.15
2019-05-21T05:28:50.635Z,8.05
2019-05-21T05:31:20.796Z,7.50
2019-05-21T05:33:51.040Z,6.58
2019-05-21T05:36:21.130Z,6.95
2019-05-21T05:38:51.618Z,7.30
2019-05-21T05:41:21.998Z,6.25
2019-05-21T05:43:52.364Z,5.03
2019-05-21T05:46:22.749Z,5.53
2019-05-21T05:49:04.402Z,5.70
2019-05-21T05:51:35.018Z,4.72
2019-05-21T05:54:07.686Z,4.95
2019-05-21T05:56:37.168Z,5.12
2019-05-21T05:59:07.773Z,4.72
2019-05-21T06:01:37.881Z,3.85
2019-05-21T06:04:08.258Z,3.60
2019-05-21T06:06:38.409Z,3.33
2019-05-21T06:09:08.497Z,2.92
2019-05-21T06:11:38.880Z,2.70
2019-05-21T06:14:09.086Z,2.33
2019-05-21T06:16:40.363Z,2.80
2019-05-21T06:19:11.942Z,2.40
2019-05-21T06:21:42.375Z,2.12
2019-05-21T06:24:13.612Z,2.10
2019-05-21T06:26:45.769Z,2.15
2019-05-21T06:29:17.514Z,1.98
2019-05-21T06:31:47.755Z,1.50
2019-05-21T06:34:18.344Z,2.02
2019-05-21T06:36:48.544Z,1.72
2019-05-21T06:39:19.190Z,1.52
2019-05-21T06:41:49.760Z,1.87
2019-05-21T06:44:20.287Z,1.70
2019-05-21T06:46:51.045Z,1.42
2019-05-21T06:49:21.166Z,1.55
2019-05-21T06:51:51.385Z,1.40
2019-05-21T06:54:21.741Z,1.30
2019-05-21T06:56:52.135Z,1.10
2019-05-21T06:59:23.411Z,1.20
2019-05-21T07:01:53.705Z,1.52
2019-05-21T07:04:23.752Z,1.20
2019-05-21T07:06:54.367Z,1.22
2019-05-21T07:09:24.411Z,0.90
2019-05-21T07:11:54.486Z,1.05
2019-05-21T07:14:24.525Z,1.10
2019-05-21T07:16:54.917Z,1.17
2019-05-21T07:19:26.595Z,1.75
2019-05-21T07:22:11.518Z,1.00
2019-05-21T07:24:28.808Z,1.05
2019-05-21T07:26:59.525Z,0.90
2019-05-21T07:29:29.905Z,1.10
2019-05-21T07:32:01.520Z,1.02
2019-05-21T07:34:31.752Z,1.10
2019-05-21T07:37:01.819Z,0.82
2019-05-21T07:39:31.959Z,0.72
2019-05-21T07:42:01.950Z,0.70
2019-05-21T07:44:32.046Z,0.60
2019-05-21T07:47:02.499Z,0.42
2019-05-21T07:49:32.879Z,0.70
2019-05-21T07:52:02.964Z,0.53
2019-05-21T07:54:33.372Z,0.57
2019-05-21T07:57:03.784Z,0.60
2019-05-21T07:59:35.599Z,0.60
2019-05-21T08:02:06.009Z,0.60
2019-05-21T08:04:36.199Z,0.60
2019-05-21T08:07:06.202Z,0.60
2019-05-21T08:09:36.307Z,0.60
2019-05-21T08:12:27.473Z,0.50
2019-05-21T08:14:38.611Z,0.60
2019-05-21T08:17:08.782Z,0.60
2019-05-21T08:19:38.821Z,0.68
2019-05-21T08:22:09.228Z,0.47
2019-05-21T08:24:39.359Z,0.50
2019-05-21T08:27:09.771Z,0.47
2019-05-21T08:29:40.846Z,0.65
2019-05-21T08:32:11.621Z,0.50
2019-05-21T08:34:41.745Z,0.45
2019-05-21T08:37:12.854Z,0.68
2019-05-21T08:39:42.948Z,0.37
2019-05-21T08:42:13.036Z,0.50
2019-05-21T08:44:44.022Z,0.60
2019-05-21T08:47:14.214Z,0.70
2019-05-21T08:49:44.412Z,0.60
2019-05-21T08:52:14.975Z,0.53
2019-05-21T08:54:50.367Z,0.60
2019-05-21T08:57:20.982Z,0.80
2019-05-21T08:59:51.183Z,0.70
2019-05-21T09:02:21.546Z,0.90
2019-05-21T09:04:52.387Z,1.00
2019-05-21T09:07:22.947Z,0.95
2019-05-21T09:09:53.127Z,1.62
2019-05-21T09:12:26.799Z,1.35
2019-05-21T09:14:57.180Z,1.55
2019-05-21T09:17:27.495Z,1.35
2019-05-21T09:19:57.533Z,1.80
2019-05-21T09:22:27.579Z,1.80
2019-05-21T09:24:57.563Z,1.70
2019-05-21T09:27:27.688Z,1.55
2019-05-21T09:29:57.828Z,1.60
2019-05-21T09:32:28.289Z,1.50
2019-05-21T09:34:58.429Z,1.50
2019-05-21T09:37:28.458Z,1.62
2019-05-21T09:39:59.965Z,1.50
2019-05-21T09:42:30.252Z,1.40
2019-05-21T09:45:00.306Z,1.15
2019-05-21T09:47:30.664Z,1.30
2019-05-21T09:50:02.050Z,1.50
2019-05-21T09:52:33.369Z,1.30
2019-05-21T09:55:03.822Z,1.50
2019-05-21T09:57:46.177Z,1.92
2019-05-21T10:00:32.005Z,1.32
2019-05-21T10:03:02.249Z,1.30
2019-05-21T10:05:32.871Z,1.10
2019-05-21T10:08:03.412Z,1.17
2019-05-21T10:10:33.566Z,1.50
2019-05-21T10:13:03.913Z,1.20
2019-05-21T10:15:34.555Z,1.32
2019-05-21T10:18:06.630Z,1.50
2019-05-21T10:20:37.042Z,1.70
2019-05-21T10:23:07.104Z,1.37
2019-05-21T10:25:37.511Z,1.20
2019-05-21T10:28:07.689Z,1.10
2019-05-21T10:30:37.818Z,0.88
2019-05-21T10:33:09.985Z,1.00
2019-05-21T10:35:40.200Z,1.10
2019-05-21T10:38:10.744Z,1.00
2019-05-21T10:40:40.934Z,0.90
2019-05-21T10:43:11.478Z,0.80
2019-05-21T10:45:41.612Z,0.70
2019-05-21T10:48:13.954Z,0.85
2019-05-21T10:50:44.547Z,0.95
2019-05-21T10:53:14.963Z,0.80
2019-05-21T10:55:45.389Z,0.70
2019-05-21T10:58:15.582Z,0.72
2019-05-21T11:00:47.615Z,0.90
2019-05-21T11:03:28.717Z,0.80
2019-05-21T11:06:09.571Z,0.60
2019-05-21T11:08:30.623Z,0.80
2019-05-21T11:11:00.776Z,1.17
2019-05-21T11:13:31.986Z,1.10
2019-05-21T11:16:02.039Z,1.00
2019-05-21T11:18:32.268Z,1.10
2019-05-21T11:21:03.067Z,1.20
2019-05-21T11:23:33.190Z,1.22
2019-05-21T11:26:03.449Z,1.15
2019-05-21T11:28:34.202Z,1.40
2019-05-21T11:31:04.376Z,1.12
2019-05-21T11:33:34.447Z,1.50
2019-05-21T11:36:04.782Z,1.55
2019-05-21T11:38:39.898Z,1.57
2019-05-21T11:41:06.812Z,1.50
2019-05-21T11:43:37.721Z,1.35
2019-05-21T11:46:08.188Z,1.12
2019-05-21T11:48:38.264Z,1.17
2019-05-21T11:51:12.394Z,1.20
2019-05-21T11:53:41.000Z,1.20
2019-05-21T11:56:11.055Z,0.90
2019-05-21T11:58:41.155Z,1.07
2019-05-21T12:01:11.583Z,1.30
2019-05-21T12:03:42.109Z,1.30
2019-05-21T12:06:12.264Z,1.60
2019-05-21T12:08:55.536Z,1.62
2019-05-21T12:11:14.037Z,2.02
2019-05-21T12:13:44.097Z,2.27
2019-05-21T12:16:14.113Z,2.12
2019-05-21T12:18:44.231Z,2.52
2019-05-21T12:21:14.639Z,2.90
2019-05-21T12:23:44.980Z,2.70
2019-05-21T12:26:14.991Z,2.80
2019-05-21T12:28:45.080Z,2.35
2019-05-21T12:31:18.229Z,2.50
2019-05-21T12:33:48.748Z,3.50
2019-05-21T12:36:18.925Z,3.45
2019-05-21T12:38:49.282Z,3.80
2019-05-21T12:41:19.407Z,4.08
2019-05-21T12:43:49.754Z,4.37
2019-05-21T12:46:20.079Z,3.83
2019-05-21T12:48:50.272Z,5.20
2019-05-21T12:51:20.809Z,4.92
2019-05-21T12:53:51.309Z,5.42
2019-05-21T12:56:21.485Z,6.95
2019-05-21T12:58:52.156Z,5.90
2019-05-21T13:01:22.354Z,6.00
2019-05-21T13:03:55.399Z,5.55
2019-05-21T13:06:24.787Z,5.85
2019-05-21T13:08:54.759Z,7.25
2019-05-21T13:11:25.321Z,9.03
2019-05-21T13:13:55.795Z,8.30
2019-05-21T13:16:25.871Z,8.55
2019-05-21T13:18:56.039Z,10.40
2019-05-21T13:21:26.128Z,9.60
2019-05-21T13:23:56.371Z,9.28
2019-05-21T13:26:27.183Z,10.10
2019-05-21T13:28:57.715Z,10.38
2019-05-21T13:31:28.150Z,12.37
2019-05-21T13:33:58.349Z,12.20
2019-05-21T13:36:28.490Z,10.93
2019-05-21T13:39:01.598Z,8.83
2019-05-21T13:41:32.122Z,7.92
2019-05-21T13:44:02.294Z,8.68
2019-05-21T13:46:35.448Z,8.38
2019-05-21T13:49:04.582Z,10.13
2019-05-21T13:51:34.753Z,10.95
2019-05-21T13:54:05.248Z,11.33
2019-05-21T13:56:35.447Z,12.55
2019-05-21T13:59:05.730Z,11.85
2019-05-21T14:01:40.783Z,14.20
2019-05-21T14:04:08.003Z,15.58
2019-05-21T14:06:38.356Z,14.95
2019-05-21T14:09:09.084Z,14.85
2019-05-21T14:11:40.018Z,14.90
2019-05-21T14:14:11.177Z,16.62
2019-05-21T14:16:41.340Z,15.25
2019-05-21T14:19:11.478Z,14.05
2019-05-21T14:21:41.941Z,12.37
2019-05-21T14:24:12.281Z,14.83
2019-05-21T14:26:42.432Z,14.70
2019-05-21T14:29:12.596Z,13.85
2019-05-21T14:31:43.064Z,14.43
2019-05-21T14:34:13.422Z,16.75
2019-05-21T14:36:45.396Z,14.95
2019-05-21T14:39:17.664Z,14.33
2019-05-21T14:41:47.887Z,15.28
2019-05-21T14:44:19.097Z,13.20
2019-05-21T14:46:49.661Z,13.00
2019-05-21T14:49:19.728Z,14.03
2019-05-21T14:51:52.881Z,11.88
2019-05-21T14:54:26.587Z,10.53
2019-05-21T14:56:55.050Z,10.75
2019-05-21T14:59:25.610Z,10.70
2019-05-21T15:01:56.526Z,12.68
2019-05-21T15:04:26.827Z,11.75
2019-05-21T15:06:59.218Z,10.30
2019-05-21T15:09:29.338Z,10.40
2019-05-21T15:12:00.995Z,10.78
2019-05-21T15:14:32.357Z,10.38
2019-05-21T15:17:02.874Z,9.30
2019-05-21T15:19:33.095Z,9.55
2019-05-21T15:22:03.400Z,9.55
2019-05-21T15:24:33.765Z,10.68
2019-05-21T15:27:04.690Z,10.03
2019-05-21T15:29:35.075Z,10.95
2019-05-21T15:32:06.320Z,10.20
2019-05-21T15:34:36.881Z,9.43
2019-05-21T15:37:07.037Z,12.25
2019-05-21T15:39:37.747Z,10.58
2019-05-21T15:42:09.156Z,13.32
2019-05-21T15:44:39.264Z,13.65
2019-05-21T15:47:09.478Z,13.85
2019-05-21T15:49:39.661Z,12.95
2019-05-21T15:52:10.071Z,16.05
2019-05-21T15:54:40.155Z,15.00
2019-05-21T15:57:10.903Z,16.82
2019-05-21T15:59:41.174Z,16.20
2019-05-21T16:02:11.646Z,16.77
2019-05-21T16:04:42.235Z,17.85
2019-05-21T16:07:12.496Z,17.35
2019-05-21T16:09:42.575Z,17.25
2019-05-21T16:12:12.722Z,17.92
2019-05-21T16:14:43.255Z,18.87
2019-05-21T16:17:13.350Z,18.20
2019-05-21T16:19:43.832Z,19.35
2019-05-21T16:22:13.933Z,18.60
2019-05-21T16:24:44.324Z,19.85
2019-05-21T16:27:14.442Z,18.15
2019-05-21T16:29:44.723Z,18.15
2019-05-21T16:32:15.090Z,18.65
2019-05-21T16:34:45.663Z,22.93
2019-05-21T16:37:16.106Z,23.12
2019-05-21T16:39:47.917Z,23.40
2019-05-21T16:42:18.424Z,25.40
2019-05-21T16:44:48.582Z,25.88
2019-05-21T16:47:19.217Z,22.48
2019-05-21T16:49:49.570Z,26.10
2019-05-21T16:52:19.630Z,26.10
2019-05-21T16:54:49.959Z,25.08
2019-05-21T16:57:20.653Z,28.73
2019-05-21T16:59:51.943Z,25.40
2019-05-21T17:02:22.447Z,24.65
2019-05-21T17:04:52.973Z,25.68
2019-05-21T17:07:23.416Z,26.97
2019-05-21T17:09:55.519Z,23.60
2019-05-21T17:12:28.171Z,26.82
2019-05-21T17:14:58.935Z,27.65
2019-05-21T17:17:29.137Z,27.27
2019-05-21T17:19:59.637Z,25.57
2019-05-21T17:22:29.840Z,23.40
2019-05-21T17:25:00.530Z,26.68
2019-05-21T17:27:31.139Z,28.07
2019-05-21T17:30:01.593Z,26.30
2019-05-21T17:32:31.823Z,26.85
2019-05-21T17:35:02.739Z,25.92
2019-05-21T17:37:33.640Z,26.23
2019-05-21T17:40:04.368Z,25.32
2019-05-21T17:42:34.935Z,24.85
2019-05-21T17:45:05.771Z,24.10
2019-05-21T17:47:36.671Z,23.00
2019-05-21T17:50:07.453Z,22.20
2019-05-21T17:52:39.201Z,23.22
2019-05-21T17:55:09.399Z,23.30
2019-05-21T17:57:40.530Z,22.90
2019-05-21T18:00:11.754Z,22.45
2019-05-21T18:02:42.019Z,22.27
2019-05-21T18:05:13.254Z,23.65
2019-05-21T18:07:44.417Z,21.70
2019-05-21T18:10:14.986Z,23.05
2019-05-21T18:12:45.658Z,22.82
2019-05-21T18:15:16.614Z,20.92
2019-05-21T18:17:47.015Z,21.35
2019-05-21T18:20:20.625Z,20.15
2019-05-21T18:22:54.149Z,21.75
2019-05-21T18:25:24.802Z,23.55
2019-05-21T18:27:55.290Z,20.70
2019-05-21T18:30:26.041Z,20.55
2019-05-21T18:32:56.277Z,20.70
2019-05-21T18:35:27.496Z,18.82
2019-05-21T18:37:58.061Z,19.77
2019-05-21T18:40:28.809Z,18.70
2019-05-21T18:42:58.956Z,16.87
2019-05-21T18:45:29.623Z,18.35
2019-05-21T18:47:59.801Z,19.25
2019-05-21T18:50:36.364Z,17.87
2019-05-21T18:53:03.967Z,17.48
2019-05-21T18:55:34.813Z,18.45
2019-05-21T18:58:05.252Z,17.50
2019-05-21T19:00:35.744Z,17.00
2019-05-21T19:03:06.585Z,18.98
2019-05-21T19:05:37.230Z,17.70
2019-05-21T19:08:07.968Z,18.40
2019-05-21T19:10:38.375Z,18.10
2019-05-21T19:13:08.583Z,17.95
2019-05-21T19:15:38.802Z,17.55
2019-05-21T19:18:09.049Z,17.15
2019-05-21T19:20:39.593Z,16.12
2019-05-21T19:23:09.674Z,17.73
2019-05-21T19:25:40.032Z,17.20
2019-05-21T19:28:10.539Z,16.97
2019-05-21T19:30:40.950Z,16.87
2019-05-21T19:33:11.394Z,17.02
2019-05-21T19:35:41.494Z,18.32
2019-05-21T19:38:11.608Z,15.95
2019-05-21T19:40:42.251Z,15.38
2019-05-21T19:43:12.373Z,16.27
2019-05-21T19:45:42.880Z,15.60
2019-05-21T19:48:13.499Z,15.45
2019-05-21T19:50:44.506Z,16.32
2019-05-21T19:53:14.679Z,14.90
2019-05-21T19:55:45.028Z,14.78
2019-05-21T19:58:15.451Z,16.27
2019-05-21T20:00:52.214Z,15.35
2019-05-21T20:03:22.691Z,15.50
2019-05-21T20:05:53.974Z,18.10
2019-05-21T20:08:24.523Z,17.23
2019-05-21T20:10:54.954Z,18.60
2019-05-21T20:13:32.714Z,19.48
2019-05-21T20:15:59.725Z,17.77
2019-05-21T20:18:29.934Z,21.62
2019-05-21T20:21:01.905Z,19.15
2019-05-21T20:23:32.852Z,21.85
2019-05-21T20:26:04.254Z,22.05
2019-05-21T20:28:34.468Z,20.12
2019-05-21T20:31:04.837Z,22.73
2019-05-21T20:33:37.032Z,23.67
2019-05-21T20:36:08.589Z,23.67
2019-05-21T20:38:40.130Z,23.85
2019-05-21T20:41:10.956Z,25.52
2019-05-21T20:43:41.097Z,25.30
2019-05-21T20:46:11.715Z,22.50
2019-05-21T20:48:42.613Z,20.40
2019-05-21T20:51:13.390Z,21.65
2019-05-21T20:53:44.434Z,18.37
2019-05-21T20:56:15.764Z,21.20
2019-05-21T20:58:45.929Z,17.45
2019-05-21T21:01:16.003Z,16.75
2019-05-21T21:03:46.433Z,18.12
2019-05-21T21:06:16.667Z,21.15
2019-05-21T21:08:47.585Z,19.92
2019-05-21T21:11:18.802Z,20.35
2019-05-21T21:13:48.989Z,20.43
2019-05-21T21:16:19.329Z,23.45
2019-05-21T21:18:50.500Z,17.73
2019-05-21T21:21:20.672Z,19.35
2019-05-21T21:23:52.675Z,18.62
2019-05-21T21:26:22.771Z,23.27
2019-05-21T21:28:52.976Z,20.62
2019-05-21T21:31:23.835Z,18.77
2019-05-21T21:33:53.871Z,20.57
2019-05-21T21:36:24.552Z,19.25
2019-05-21T21:38:54.967Z,20.23
2019-05-21T21:41:25.610Z,19.55
2019-05-21T21:43:55.855Z,22.52
2019-05-21T21:46:25.856Z,23.92
2019-05-21T21:48:56.611Z,20.80
2019-05-21T21:51:27.097Z,21.40
2019-05-21T21:53:57.930Z,22.15
2019-05-21T21:56:28.602Z,19.62
2019-05-21T21:58:59.321Z,22.40
2019-05-21T22:01:44.695Z,24.45
2019-05-21T22:04:16.646Z,19.25
2019-05-21T22:06:48.103Z,19.55
2019-05-21T22:09:29.265Z,20.77
2019-05-21T22:12:00.017Z,23.00
2019-05-21T22:14:30.442Z,21.30
2019-05-21T22:17:01.387Z,18.90
2019-05-21T22:19:31.838Z,20.17
2019-05-21T22:22:37.418Z,22.17
2019-05-21T22:25:08.591Z,23.47
2019-05-21T22:27:39.667Z,21.65
2019-05-21T22:30:10.583Z,21.60
2019-05-21T22:32:40.724Z,22.37
2019-05-21T22:35:11.946Z,21.85
2019-05-21T22:37:42.565Z,22.45
2019-05-21T22:40:13.158Z,23.40
2019-05-21T22:42:43.978Z,22.30
2019-05-21T22:45:14.469Z,24.67
2019-05-21T22:47:44.544Z,23.42
2019-05-21T22:50:14.823Z,23.32
2019-05-21T22:52:45.154Z,24.75
2019-05-21T22:55:15.198Z,23.05
2019-05-21T22:57:45.335Z,22.95
2019-05-21T23:00:15.919Z,22.48
2019-05-21T23:02:46.937Z,24.57
2019-05-21T23:05:17.502Z,26.65
2019-05-21T23:07:48.214Z,23.60
2019-05-21T23:10:18.494Z,28.98
2019-05-21T23:12:49.282Z,32.65
2019-05-21T23:15:24.965Z,32.85
2019-05-21T23:18:11.006Z,29.92
2019-05-21T23:20:43.757Z,31.17
2019-05-21T23:23:14.186Z,34.08
2019-05-21T23:25:46.318Z,36.77
2019-05-21T23:28:16.980Z,34.83
2019-05-21T23:30:48.478Z,32.50
2019-05-21T23:33:20.560Z,32.48
2019-05-21T23:35:51.011Z,33.63
2019-05-21T23:38:21.579Z,34.85
2019-05-21T23:40:52.382Z,35.00
2019-05-21T23:43:22.668Z,34.92
2019-05-21T23:45:53.282Z,32.98
2019-05-21T23:48:23.554Z,35.23
2019-05-21T23:50:54.137Z,33.75
2019-05-21T23:53:24.322Z,36.70
2019-05-21T23:55:54.478Z,33.35
2019-05-21T23:58:25.232Z,32.28
